createdAt,value
2018-11-22T00:00:33.009Z,13.03
2018-11-22T00:03:38.902Z,12.90
2018-11-22T00:06:44.838Z,12.53
2018-11-22T00:09:50.750Z,12.57
2018-11-22T00:12:56.746Z,11.03
2018-11-22T00:16:02.633Z,10.50
2018-11-22T00:19:09.126Z,8.47
2018-11-22T00:22:15.055Z,8.80
2018-11-22T00:25:20.979Z,12.27
2018-11-22T00:28:26.891Z,11.83
2018-11-22T00:31:32.810Z,11.57
2018-11-22T00:34:38.716Z,10.87
2018-11-22T00:37:46.791Z,11.30
2018-11-22T00:40:52.699Z,11.63
2018-11-22T00:43:58.634Z,11.60
2018-11-22T00:47:04.519Z,12.53
2018-11-22T00:50:13.867Z,11.50
2018-11-22T00:53:19.779Z,11.23
2018-11-22T00:56:25.714Z,11.97
2018-11-22T00:59:31.646Z,12.17
2018-11-22T01:02:37.608Z,11.50
2018-11-22T01:05:43.506Z,11.87
2018-11-22T01:08:49.403Z,12.40
2018-11-22T01:11:55.310Z,11.87
2018-11-22T01:15:01.335Z,12.03
2018-11-22T01:18:07.409Z,12.80
2018-11-22T01:21:13.337Z,12.23
2018-11-22T01:24:19.302Z,12.13
2018-11-22T01:27:25.251Z,13.47
2018-11-22T01:30:31.298Z,12.50
2018-11-22T01:33:37.203Z,14.23
2018-11-22T01:36:43.139Z,12.73
2018-11-22T01:39:49.092Z,12.93
2018-11-22T01:42:54.995Z,13.63
2018-11-22T01:46:00.932Z,12.77
2018-11-22T01:49:07.025Z,12.43
2018-11-22T01:52:13.048Z,13.13
2018-11-22T01:55:20.541Z,13.63
2018-11-22T01:58:26.499Z,13.20
2018-11-22T02:01:32.442Z,13.17
2018-11-22T02:04:38.349Z,13.27
2018-11-22T02:07:44.225Z,12.10
2018-11-22T02:10:50.200Z,10.70
2018-11-22T02:13:56.117Z,10.10
2018-11-22T02:17:02.111Z,10.13
2018-11-22T02:20:14.418Z,9.43
2018-11-22T02:23:20.322Z,9.47
2018-11-22T02:26:26.352Z,8.07
2018-11-22T02:29:32.231Z,8.97
2018-11-22T02:32:38.161Z,7.93
2018-11-22T02:35:44.056Z,8.50
2018-11-22T02:38:49.983Z,7.70
2018-11-22T02:41:55.889Z,9.17
2018-11-22T02:45:01.843Z,8.50
2018-11-22T02:48:07.909Z,8.43
2018-11-22T02:51:13.942Z,9.43
2018-11-22T02:54:19.879Z,8.67
2018-11-22T02:57:25.815Z,9.07
2018-11-22T03:00:39.813Z,7.97
2018-11-22T03:03:45.695Z,8.47
2018-11-22T03:06:51.716Z,8.47
2018-11-22T03:09:57.647Z,9.13
2018-11-22T03:13:03.576Z,8.90
2018-11-22T03:16:09.636Z,8.67
2018-11-22T03:19:15.532Z,8.70
2018-11-22T03:22:21.443Z,9.23
2018-11-22T03:25:27.431Z,9.20
2018-11-22T03:28:33.330Z,9.97
2018-11-22T03:31:39.262Z,10.07
2018-11-22T03:34:45.295Z,9.87
2018-11-22T03:37:51.488Z,9.83
2018-11-22T03:40:57.375Z,9.90
2018-11-22T03:44:03.319Z,9.20
2018-11-22T03:47:09.231Z,11.07
2018-11-22T03:50:17.978Z,10.37
2018-11-22T03:53:23.919Z,10.10
2018-11-22T03:56:30.048Z,10.57
2018-11-22T03:59:36.115Z,10.33
2018-11-22T04:02:42.810Z,10.60
2018-11-22T04:05:48.976Z,11.03
2018-11-22T04:08:54.914Z,10.60
2018-11-22T04:12:00.986Z,9.90
2018-11-22T04:15:08.608Z,10.70
2018-11-22T04:18:14.605Z,10.73
2018-11-22T04:21:20.603Z,10.23
2018-11-22T04:24:26.636Z,10.47
2018-11-22T04:27:32.667Z,10.87
2018-11-22T04:30:38.596Z,10.50
2018-11-22T04:33:44.528Z,10.40
2018-11-22T04:36:50.485Z,9.80
2018-11-22T04:39:56.408Z,10.97
2018-11-22T04:43:02.345Z,10.17
2018-11-22T04:46:08.401Z,10.43
2018-11-22T04:49:14.404Z,10.87
2018-11-22T04:52:20.436Z,12.20
2018-11-22T04:55:26.501Z,11.37
2018-11-22T04:58:32.400Z,10.73
2018-11-22T05:01:38.328Z,9.80
2018-11-22T05:04:44.303Z,11.30
2018-11-22T05:07:50.361Z,11.40
2018-11-22T05:10:56.326Z,10.80
2018-11-22T05:14:02.547Z,11.03
2018-11-22T05:17:08.508Z,10.83
2018-11-22T05:20:16.074Z,10.47
2018-11-22T05:23:22.127Z,10.83
2018-11-22T05:26:28.077Z,10.50
2018-11-22T05:29:34.115Z,11.03
2018-11-22T05:32:40.252Z,11.60
2018-11-22T05:35:46.249Z,11.60
2018-11-22T05:38:52.297Z,11.10
2018-11-22T05:41:58.242Z,9.77
2018-11-22T05:45:04.368Z,10.10
2018-11-22T05:48:10.392Z,11.17
2018-11-22T05:51:16.365Z,11.30
2018-11-22T05:54:22.302Z,10.17
2018-11-22T05:57:28.256Z,11.30
2018-11-22T06:00:34.841Z,12.30
2018-11-22T06:03:40.846Z,12.40
2018-11-22T06:06:46.772Z,11.50
2018-11-22T06:09:52.821Z,11.90
2018-11-22T06:12:59.931Z,12.47
2018-11-22T06:16:05.973Z,13.03
2018-11-22T06:19:11.918Z,13.10
2018-11-22T06:22:18.046Z,13.23
2018-11-22T06:25:24.341Z,13.47
2018-11-22T06:28:30.265Z,13.03
2018-11-22T06:31:36.255Z,13.87
2018-11-22T06:34:42.227Z,14.93
2018-11-22T06:37:48.348Z,18.27
2018-11-22T06:40:54.410Z,18.83
2018-11-22T06:44:00.406Z,18.20
2018-11-22T06:47:06.529Z,17.80
2018-11-22T06:50:14.364Z,17.83
2018-11-22T06:53:20.287Z,19.07
2018-11-22T06:56:26.231Z,18.57
2018-11-22T06:59:32.153Z,18.57
2018-11-22T07:02:38.085Z,18.37
2018-11-22T07:05:44.021Z,20.13
2018-11-22T07:08:49.964Z,21.43
2018-11-22T07:11:55.889Z,20.20
2018-11-22T07:15:01.821Z,18.90
2018-11-22T07:18:07.949Z,20.37
2018-11-22T07:21:13.927Z,21.13
2018-11-22T07:24:19.823Z,21.30
2018-11-22T07:27:25.793Z,19.10
2018-11-22T07:30:33.354Z,22.63
2018-11-22T07:33:39.254Z,21.43
2018-11-22T07:36:45.182Z,21.37
2018-11-22T07:39:51.155Z,21.93
2018-11-22T07:42:57.079Z,22.63
2018-11-22T07:46:03.025Z,22.17
2018-11-22T07:49:09.072Z,22.97
2018-11-22T07:52:15.028Z,23.23
2018-11-22T07:55:21.597Z,24.30
2018-11-22T07:58:27.670Z,25.40
2018-11-22T08:01:33.858Z,24.63
2018-11-22T08:04:39.829Z,24.33
2018-11-22T08:07:46.720Z,25.17
2018-11-22T08:10:52.590Z,25.07
2018-11-22T08:13:58.533Z,24.77
2018-11-22T08:17:04.690Z,26.03
2018-11-22T08:20:10.624Z,25.37
2018-11-22T08:23:16.713Z,24.63
2018-11-22T08:26:22.640Z,26.23
2018-11-22T08:29:28.742Z,25.57
2018-11-22T08:32:34.656Z,25.70
2018-11-22T08:35:40.568Z,24.73
2018-11-22T08:38:46.469Z,27.10
2018-11-22T08:41:52.445Z,26.67
2018-11-22T08:44:58.435Z,27.97
2018-11-22T08:48:04.316Z,27.83
2018-11-22T08:51:10.369Z,29.17
2018-11-22T08:54:16.311Z,30.37
2018-11-22T08:57:22.219Z,30.23
2018-11-22T09:00:32.015Z,29.47
2018-11-22T09:03:37.966Z,31.93
2018-11-22T09:06:43.912Z,31.47
2018-11-22T09:09:49.827Z,32.17
2018-11-22T09:12:58.965Z,30.67
2018-11-22T09:16:04.985Z,32.00
2018-11-22T09:19:10.922Z,31.87
2018-11-22T09:22:17.010Z,31.63
2018-11-22T12:17:44.402Z,28.73
2018-11-22T12:20:48.743Z,29.23
2018-11-22T12:23:53.076Z,30.20
2018-11-22T12:27:04.007Z,28.43
2018-11-22T12:30:12.218Z,31.90
2018-11-22T12:33:22.567Z,30.73
2018-11-22T12:36:30.939Z,29.03
2018-11-22T12:39:35.297Z,31.17
2018-11-22T12:42:39.716Z,28.93
2018-11-22T12:45:44.153Z,29.80
2018-11-22T12:48:48.503Z,30.80
2018-11-22T12:51:52.881Z,31.07
2018-11-22T12:54:57.180Z,29.30
2018-11-22T12:58:01.547Z,31.07
2018-11-22T13:01:06.522Z,32.73
2018-11-22T13:04:10.836Z,33.23
2018-11-22T13:07:15.356Z,32.77
2018-11-22T13:10:20.245Z,32.97
2018-11-22T13:13:24.617Z,32.83
2018-11-22T13:16:28.973Z,32.27
2018-11-22T13:19:33.335Z,34.17
2018-11-22T13:22:37.888Z,33.93
2018-11-22T13:25:42.245Z,35.20
2018-11-22T13:28:46.595Z,35.27
2018-11-22T13:31:50.949Z,35.10
2018-11-22T13:34:55.304Z,35.17
2018-11-22T13:37:59.662Z,36.17
2018-11-22T13:41:04.031Z,36.07
2018-11-22T13:44:08.555Z,35.40
2018-11-22T13:47:12.943Z,34.67
2018-11-22T13:50:20.717Z,35.60
2018-11-22T13:53:25.036Z,37.30
2018-11-22T13:56:29.356Z,36.00
2018-11-22T13:59:33.664Z,36.00
2018-11-22T14:02:38.017Z,34.73
2018-11-22T14:05:42.380Z,34.60
2018-11-22T14:08:46.726Z,34.77
2018-11-22T14:11:51.079Z,34.63
2018-11-22T14:14:55.424Z,33.57
2018-11-22T14:18:01.332Z,33.43
2018-11-22T14:21:05.795Z,33.27
2018-11-22T14:24:10.152Z,34.17
2018-11-22T14:27:14.510Z,34.63
2018-11-22T14:30:24.366Z,34.83
2018-11-22T14:33:28.760Z,34.30
2018-11-22T14:36:33.077Z,35.17
2018-11-22T14:39:37.436Z,35.23
2018-11-22T14:42:41.947Z,34.43
2018-11-22T14:45:46.406Z,36.13
2018-11-22T14:48:50.754Z,35.67
2018-11-22T14:51:56.470Z,36.07
2018-11-22T14:55:00.806Z,35.13
2018-11-22T14:58:05.310Z,35.60
2018-11-22T15:01:09.672Z,34.67
2018-11-22T15:04:14.005Z,35.13
2018-11-22T15:07:18.343Z,33.67
2018-11-22T15:10:22.746Z,31.93
2018-11-22T15:13:27.060Z,32.90
2018-11-22T15:16:31.470Z,34.47
2018-11-22T15:19:35.779Z,34.03
2018-11-22T15:22:40.879Z,32.67
2018-11-22T15:25:45.173Z,34.13
2018-11-22T15:28:49.487Z,33.37
2018-11-22T15:31:53.784Z,31.60
2018-11-22T15:34:58.163Z,31.13
2018-11-22T15:38:02.507Z,31.93
2018-11-22T15:41:06.940Z,31.73
2018-11-22T15:44:11.213Z,32.20
2018-11-22T15:47:15.602Z,29.83
2018-11-22T15:50:22.198Z,30.23
2018-11-22T15:53:26.539Z,30.80
2018-11-22T15:56:30.859Z,29.33
2018-11-22T15:59:35.201Z,30.53
2018-11-22T16:02:39.596Z,30.20
2018-11-22T16:05:43.928Z,31.07
2018-11-22T16:08:48.243Z,30.73
2018-11-22T16:11:52.588Z,31.50
2018-11-22T16:14:56.874Z,31.70
2018-11-22T16:18:01.159Z,30.73
2018-11-22T16:21:05.925Z,30.53
2018-11-22T16:24:10.245Z,29.73
2018-11-22T16:27:14.963Z,29.83
2018-11-22T16:30:21.757Z,32.80
2018-11-22T16:33:26.059Z,31.30
2018-11-22T16:36:30.423Z,29.63
2018-11-22T16:39:34.710Z,32.73
2018-11-22T16:42:39.747Z,31.43
2018-11-22T16:45:44.112Z,36.70
2018-11-22T16:48:48.422Z,33.50
2018-11-22T16:51:52.740Z,32.20
2018-11-22T16:54:57.043Z,32.53
2018-11-22T16:58:03.396Z,31.63
2018-11-22T17:01:07.730Z,36.10
2018-11-22T17:04:12.070Z,46.77
2018-11-22T17:07:16.386Z,46.60
2018-11-22T17:10:22.433Z,44.93
2018-11-22T17:13:26.751Z,42.77
2018-11-22T17:16:31.199Z,33.53
2018-11-22T17:19:35.514Z,37.53
2018-11-22T17:22:40.516Z,34.57
2018-11-22T17:25:44.868Z,34.83
2018-11-22T17:28:49.223Z,34.97
2018-11-22T17:31:53.506Z,34.20
2018-11-22T17:34:57.892Z,32.13
2018-11-22T17:38:03.536Z,33.77
2018-11-22T17:41:07.884Z,32.23
2018-11-22T17:44:12.339Z,30.77
2018-11-22T17:47:16.713Z,33.97
2018-11-22T17:50:22.442Z,31.53
2018-11-22T17:53:26.852Z,32.70
2018-11-22T17:56:31.223Z,33.13
2018-11-22T17:59:35.662Z,30.87
2018-11-22T18:02:40.035Z,32.87
2018-11-22T18:05:44.442Z,32.97
2018-11-22T18:08:48.768Z,32.40
2018-11-22T18:11:53.118Z,32.33
2018-11-22T18:14:57.434Z,33.83
2018-11-22T18:18:01.808Z,32.40
2018-11-22T18:21:07.023Z,32.67
2018-11-22T18:24:11.360Z,32.30
2018-11-22T18:27:15.692Z,32.90
2018-11-22T18:30:21.400Z,33.10
2018-11-22T18:33:25.739Z,33.80
2018-11-22T18:36:30.030Z,32.47
2018-11-22T18:39:34.371Z,34.10
2018-11-22T18:42:38.662Z,32.70
2018-11-22T18:45:45.040Z,31.53
2018-11-22T18:48:48.986Z,34.03
2018-11-22T18:51:53.281Z,34.57
2018-11-22T18:54:57.705Z,34.00
2018-11-22T18:58:01.994Z,43.00
2018-11-22T19:01:06.582Z,38.30
2018-11-22T19:04:11.038Z,38.57
2018-11-22T19:07:15.434Z,34.97
2018-11-22T19:10:28.371Z,33.93
2018-11-22T19:13:32.758Z,33.43
2018-11-22T19:16:37.179Z,34.73
2018-11-22T19:19:41.906Z,31.70
2018-11-22T19:22:48.288Z,29.20
2018-11-22T19:25:52.688Z,29.47
2018-11-22T19:28:57.069Z,28.70
2018-11-22T19:32:01.480Z,28.60
2018-11-22T19:35:08.084Z,28.73
2018-11-22T19:38:12.593Z,27.53
2018-11-22T19:41:17.112Z,25.33
2018-11-22T19:44:21.651Z,26.50
2018-11-22T19:47:26.634Z,27.43
2018-11-22T19:50:31.726Z,25.50
2018-11-22T19:53:36.323Z,27.67
2018-11-22T19:56:40.897Z,26.97
2018-11-22T19:59:45.442Z,27.97
2018-11-22T20:02:50.533Z,28.13
2018-11-22T20:05:55.131Z,29.57
2018-11-22T20:09:02.611Z,27.77
2018-11-22T20:12:07.166Z,27.00
2018-11-22T20:15:13.837Z,29.13
2018-11-22T20:18:18.846Z,28.07
2018-11-22T20:21:23.391Z,27.70
2018-11-22T20:24:28.134Z,28.80
2018-11-22T20:27:32.965Z,29.17
2018-11-22T20:30:41.871Z,29.30
2018-11-22T20:33:46.860Z,26.90
2018-11-22T20:36:51.549Z,27.13
2018-11-22T20:39:56.113Z,27.87
2018-11-22T20:43:01.388Z,28.07
2018-11-22T20:46:05.969Z,27.93
2018-11-22T20:49:11.141Z,29.13
2018-11-22T20:52:16.619Z,28.37
2018-11-22T20:55:26.209Z,27.00
2018-11-22T20:58:31.204Z,29.17
2018-11-22T21:01:35.921Z,30.20
2018-11-22T21:04:40.482Z,28.90
2018-11-22T21:07:45.677Z,29.93
2018-11-22T21:10:50.113Z,31.47
2018-11-22T21:13:54.555Z,33.27
2018-11-22T21:16:59.066Z,31.37
2018-11-22T21:20:03.527Z,31.50
2018-11-22T21:23:07.984Z,30.90
2018-11-22T21:26:14.512Z,29.37
2018-11-22T21:29:16.935Z,30.83
2018-11-22T21:32:21.382Z,30.83
2018-11-22T21:35:25.848Z,31.10
2018-11-22T21:38:30.346Z,30.47
2018-11-22T21:41:34.713Z,30.87
2018-11-22T21:44:39.168Z,30.63
2018-11-22T21:47:43.728Z,29.63
2018-11-22T21:50:48.128Z,29.77
2018-11-22T21:53:52.558Z,28.43
2018-11-22T21:56:56.996Z,29.97
2018-11-22T22:00:01.433Z,28.70
2018-11-22T22:03:07.440Z,26.73
2018-11-22T22:06:11.860Z,27.50
2018-11-22T22:09:16.285Z,29.30
2018-11-22T22:12:20.744Z,28.77
2018-11-22T22:15:26.581Z,28.13
2018-11-22T22:18:31.047Z,26.10
2018-11-22T22:21:35.483Z,28.23
2018-11-22T22:24:39.908Z,27.43
2018-11-22T22:27:44.667Z,28.13
2018-11-22T22:30:49.067Z,28.83
2018-11-22T22:33:53.586Z,27.97
2018-11-22T22:36:58.033Z,28.57
2018-11-22T22:40:03.779Z,28.57
2018-11-22T22:43:06.904Z,28.17
2018-11-22T22:46:11.319Z,26.30
2018-11-22T22:49:15.754Z,27.97
2018-11-22T22:52:20.305Z,28.60
2018-11-22T22:55:24.723Z,27.97
2018-11-22T22:58:29.117Z,27.70
2018-11-22T23:01:33.521Z,28.17
2018-11-22T23:04:37.988Z,26.33
2018-11-22T23:07:42.322Z,28.13
2018-11-22T23:10:46.760Z,28.40
2018-11-22T23:13:52.018Z,28.77
2018-11-22T23:16:56.518Z,26.77
2018-11-22T23:20:00.918Z,27.43
2018-11-22T23:23:05.556Z,25.57
2018-11-22T23:26:09.950Z,26.63
2018-11-22T23:29:14.315Z,27.57
2018-11-22T23:32:18.692Z,28.60
2018-11-22T23:35:23.611Z,26.30
2018-11-22T23:38:28.052Z,26.63
2018-11-22T23:41:32.534Z,27.27
2018-11-22T23:44:36.942Z,28.57
2018-11-22T23:47:41.770Z,27.63
2018-11-22T23:50:46.182Z,28.03
2018-11-22T23:53:50.614Z,27.00
2018-11-22T23:56:55.037Z,28.57
2018-11-22T23:59:59.397Z,27.83
